Time;durP1;ratioP1;P1;durP2;ratioP2;P2;SDS_P1;SDS_P2;PMS_P1;PMS_P2;Temp;Humidity;BMP_temperature;BMP_pressure;BME280_temperature;BME280_humidity;BME280_pressure;Samples;Min_cycle;Max_cycle;Signal;HPM_P1;HPM_P2
2023/06/11 00:01:23;;;;;;;2.67;1.50;;;;;;;20.74;100.00;100223.13;4991972;28;20235;-79
2023/06/11 00:03:53;;;;;;;2.72;1.70;;;;;;;20.78;100.00;100241.78;5000006;28;20252;-79
2023/06/11 00:06:22;;;;;;;2.90;1.90;;;;;;;20.57;100.00;100231.78;4996960;28;20235;-79
2023/06/11 00:08:55;;;;;;;4.07;2.22;;;;;;;20.60;100.00;100234.38;4996939;28;20290;-79
2023/06/11 00:11:22;;;;;;;2.47;1.60;;;;;;;20.67;100.00;100245.78;4997783;28;20231;-79
2023/06/11 00:13:50;;;;;;;3.70;2.47;;;;;;;20.62;100.00;100245.06;4996144;28;20254;-79
2023/06/11 00:16:17;;;;;;;2.33;1.40;;;;;;;20.53;100.00;100270.44;4996842;28;20319;-79
2023/06/11 00:18:43;;;;;;;5.38;2.50;;;;;;;20.44;100.00;100276.13;5001778;28;20228;-79
2023/06/11 00:21:11;;;;;;;3.38;1.92;;;;;;;20.53;100.00;100278.50;5001867;28;20244;-79
2023/06/11 00:23:38;;;;;;;5.97;3.03;;;;;;;20.44;100.00;100286.88;4995555;28;20236;-79
2023/06/11 00:26:06;;;;;;;4.53;2.28;;;;;;;20.38;100.00;100295.09;4995650;28;20229;-79
2023/06/11 00:28:34;;;;;;;4.85;2.28;;;;;;;20.32;100.00;100280.06;4993538;28;20247;-79
2023/06/11 00:31:03;;;;;;;3.92;2.08;;;;;;;20.26;100.00;100291.03;5004346;28;20227;-79
2023/06/11 00:33:30;;;;;;;4.75;2.13;;;;;;;20.19;100.00;100294.84;5001192;28;20605;-79
2023/06/11 00:35:56;;;;;;;3.15;1.73;;;;;;;20.12;100.00;100304.91;5001933;28;20232;-79
2023/06/11 00:38:23;;;;;;;3.53;1.70;;;;;;;20.23;100.00;100307.22;5001507;28;20240;-79
2023/06/11 00:40:50;;;;;;;2.65;1.48;;;;;;;20.14;100.00;100335.25;4991325;28;20242;-79
2023/06/11 00:43:23;;;;;;;3.25;1.73;;;;;;;20.10;100.00;100317.50;4997085;28;20228;-79
2023/06/11 00:45:50;;;;;;;3.22;1.73;;;;;;;20.18;100.00;100327.09;4997778;28;20600;-79
2023/06/11 00:48:21;;;;;;;3.88;2.08;;;;;;;20.11;100.00;100329.09;4993192;28;20267;-80
2023/06/11 00:50:49;;;;;;;2.30;1.20;;;;;;;20.16;100.00;100328.97;4999508;28;20243;-81
2023/06/11 00:53:18;;;;;;;2.80;1.60;;;;;;;20.11;100.00;100310.31;5000032;28;20224;-80
2023/06/11 00:55:45;;;;;;;5.28;2.35;;;;;;;20.02;100.00;100319.53;4990186;28;20235;-80
2023/06/11 00:58:13;;;;;;;2.20;1.52;;;;;;;19.87;100.00;100327.19;5001885;28;20232;-80
2023/06/11 01:00:43;;;;;;;7.43;2.58;;;;;;;19.57;100.00;100343.28;4996490;28;20291;-79
2023/06/11 01:03:17;;;;;;;2.72;1.67;;;;;;;19.64;100.00;100352.91;5004042;28;20231;-80
2023/06/11 01:06:05;;;;;;;7.38;3.15;;;;;;;19.56;100.00;100359.41;5002677;28;20226;-80
2023/06/11 01:08:40;;;;;;;5.47;2.63;;;;;;;19.37;100.00;100373.28;4992555;28;20310;-80
2023/06/11 01:11:13;;;;;;;4.63;2.53;;;;;;;19.38;100.00;100368.81;5002689;28;20235;-80
2023/06/11 01:13:41;;;;;;;6.88;3.25;;;;;;;19.57;100.00;100378.16;5009081;28;20246;-80
2023/06/11 01:16:12;;;;;;;2.55;1.40;;;;;;;19.65;100.00;100391.34;5004670;28;20235;-80
2023/06/11 01:18:53;;;;;;;6.35;2.65;;;;;;;19.60;100.00;100398.66;4995789;28;20716;-80
2023/06/11 01:21:23;;;;;;;3.58;1.75;;;;;;;19.52;100.00;100390.81;5000742;28;20550;-80
2023/06/11 01:24:21;;;;;;;3.70;2.00;;;;;;;19.51;100.00;100391.72;4993285;28;20589;-80
2023/06/11 01:26:55;;;;;;;4.05;1.83;;;;;;;19.61;100.00;100393.25;4995755;28;20255;-80
2023/06/11 01:29:22;;;;;;;3.78;1.77;;;;;;;19.62;100.00;100383.38;5013287;28;20279;-80
2023/06/11 01:31:49;;;;;;;2.35;1.20;;;;;;;19.49;100.00;100377.44;4997541;28;20664;-80
2023/06/11 01:34:16;;;;;;;2.30;1.25;;;;;;;19.49;100.00;100382.78;4978422;28;20349;-80
2023/06/11 01:36:43;;;;;;;5.28;2.03;;;;;;;19.66;100.00;100385.06;4998420;28;20293;-80
2023/06/11 01:39:11;;;;;;;2.70;1.50;;;;;;;19.68;100.00;100377.84;5004721;28;20227;-80
2023/06/11 01:41:38;;;;;;;5.38;2.30;;;;;;;19.60;100.00;100388.78;4998930;28;20230;-80
2023/06/11 01:44:05;;;;;;;2.22;1.30;;;;;;;19.20;100.00;100394.31;4996549;28;20247;-80
2023/06/11 01:46:32;;;;;;;3.78;1.73;;;;;;;19.24;100.00;100406.72;4994540;28;20232;-80
2023/06/11 01:48:58;;;;;;;2.30;1.40;;;;;;;19.01;100.00;100418.06;5003531;28;20326;-80
2023/06/11 01:51:25;;;;;;;5.15;2.78;;;;;;;18.97;100.00;100421.72;4994930;28;20232;-80
2023/06/11 01:53:54;;;;;;;3.35;1.60;;;;;;;19.30;100.00;100430.69;5000071;28;20235;-80
2023/06/11 01:56:21;;;;;;;2.53;1.52;;;;;;;19.35;100.00;100418.03;4997843;28;20232;-80
2023/06/11 01:58:48;;;;;;;2.42;1.38;;;;;;;19.34;100.00;100421.63;4995546;28;20271;-80
2023/06/11 02:01:15;;;;;;;3.13;1.55;;;;;;;19.29;100.00;100415.53;5006243;28;20232;-80
2023/06/11 02:03:41;;;;;;;10.48;4.03;;;;;;;19.25;100.00;100421.00;4998051;28;20240;-80
2023/06/11 02:06:08;;;;;;;2.88;1.52;;;;;;;19.11;100.00;100424.06;4999592;28;20231;-80
2023/06/11 02:08:35;;;;;;;5.38;2.60;;;;;;;19.16;100.00;100431.06;5001713;28;20278;-80
2023/06/11 02:11:03;;;;;;;5.00;2.63;;;;;;;19.21;100.00;100440.78;5002174;28;20227;-80
2023/06/11 02:13:33;;;;;;;4.55;2.15;;;;;;;19.29;100.00;100434.28;4996724;28;20219;-79
2023/06/11 02:15:59;;;;;;;2.58;1.67;;;;;;;19.15;100.00;100450.75;5003088;28;20231;-80
2023/06/11 02:18:26;;;;;;;2.05;1.20;;;;;;;18.91;100.00;100448.69;4996012;28;20252;-80
2023/06/11 02:20:53;;;;;;;3.28;1.85;;;;;;;18.97;100.00;100450.34;4997636;28;20239;-80
2023/06/11 02:23:20;;;;;;;2.88;1.55;;;;;;;19.06;100.00;100455.47;5002082;28;20231;-80
2023/06/11 02:25:46;;;;;;;10.00;2.97;;;;;;;19.03;100.00;100445.69;4992663;28;20586;-80
2023/06/11 02:28:14;;;;;;;2.80;1.48;;;;;;;18.94;100.00;100463.81;4999932;28;20286;-80
2023/06/11 02:30:41;;;;;;;9.80;3.13;;;;;;;18.53;100.00;100476.34;4995816;28;20220;-79
2023/06/11 02:33:08;;;;;;;2.17;1.23;;;;;;;18.53;100.00;100479.03;5003637;28;20223;-80
2023/06/11 02:35:35;;;;;;;21.35;5.90;;;;;;;18.69;100.00;100487.63;4991325;28;20615;-79
2023/06/11 02:38:01;;;;;;;2.53;1.45;;;;;;;18.69;100.00;100495.66;4986790;28;20246;-79
2023/06/11 02:40:28;;;;;;;2.85;1.50;;;;;;;18.61;100.00;100497.59;4997469;28;20220;-80
2023/06/11 02:42:55;;;;;;;2.47;1.40;;;;;;;18.52;100.00;100491.53;4988589;28;20231;-80
2023/06/11 02:45:22;;;;;;;3.35;1.60;;;;;;;18.54;100.00;100510.25;5001318;28;20242;-80
2023/06/11 02:47:48;;;;;;;3.45;1.60;;;;;;;18.53;100.00;100512.06;4997576;28;21384;-80
2023/06/11 02:50:15;;;;;;;2.47;1.40;;;;;;;18.39;100.00;100534.69;4999336;28;20295;-80
2023/06/11 02:52:42;;;;;;;5.43;2.25;;;;;;;18.37;100.00;100541.88;4998854;28;20240;-79
2023/06/11 02:55:08;;;;;;;2.90;1.58;;;;;;;18.39;100.00;100540.94;4997862;28;20224;-79
2023/06/11 02:57:36;;;;;;;4.78;2.10;;;;;;;18.56;100.00;100532.53;4997960;28;20300;-79
2023/06/11 03:00:05;;;;;;;2.97;1.60;;;;;;;18.73;100.00;100521.47;5003009;28;20263;-79
2023/06/11 03:02:32;;;;;;;3.50;1.70;;;;;;;18.67;100.00;100524.28;5003519;28;20243;-79
2023/06/11 03:04:59;;;;;;;2.25;1.30;;;;;;;18.43;100.00;100539.06;5003523;28;20234;-80
2023/06/11 03:07:25;;;;;;;2.88;1.65;;;;;;;18.38;100.00;100538.28;5001011;28;20224;-80
2023/06/11 03:09:52;;;;;;;3.88;2.08;;;;;;;18.51;100.00;100535.31;4997547;28;20232;-80
2023/06/11 03:12:20;;;;;;;4.78;1.83;;;;;;;18.40;100.00;100536.47;5006676;28;20234;-80
2023/06/11 03:14:47;;;;;;;27.80;6.78;;;;;;;18.26;100.00;100541.22;4993646;28;20251;-79
2023/06/11 03:17:13;;;;;;;2.40;1.30;;;;;;;18.36;100.00;100549.03;5003787;28;20254;-80
2023/06/11 03:19:40;;;;;;;3.72;2.05;;;;;;;18.50;100.00;100541.59;4995381;28;20224;-81
2023/06/11 03:22:10;;;;;;;2.88;1.67;;;;;;;18.43;100.00;100537.28;4999724;28;20224;-81
2023/06/11 03:24:36;;;;;;;24.17;6.15;;;;;;;18.48;100.00;100539.84;4994941;28;20255;-80
2023/06/11 03:27:03;;;;;;;3.38;1.80;;;;;;;18.41;100.00;100540.91;4999641;28;20244;-80
2023/06/11 03:29:30;;;;;;;5.18;2.13;;;;;;;18.47;100.00;100530.94;4994053;28;20247;-78
2023/06/11 03:31:58;;;;;;;2.85;1.45;;;;;;;18.51;100.00;100524.59;4990452;28;20684;-78
2023/06/11 03:34:25;;;;;;;2.13;1.05;;;;;;;18.29;100.00;100549.19;4995439;28;20228;-78
2023/06/11 03:36:53;;;;;;;1.75;1.27;;;;;;;18.13;100.00;100581.59;4986596;28;20312;-77
2023/06/11 03:39:21;;;;;;;2.42;1.40;;;;;;;18.22;100.00;100576.09;5000537;28;20226;-79
2023/06/11 03:41:48;;;;;;;13.13;3.28;;;;;;;18.34;100.00;100579.44;4994802;28;20779;-79
2023/06/11 03:44:15;;;;;;;2.85;1.48;;;;;;;18.31;100.00;100572.34;4995064;28;20239;-79
2023/06/11 03:46:42;;;;;;;20.23;5.55;;;;;;;18.23;100.00;100579.63;4997105;28;20311;-80
2023/06/11 03:49:09;;;;;;;3.67;2.28;;;;;;;18.38;100.00;100575.78;4999040;28;20227;-80
2023/06/11 03:51:36;;;;;;;24.02;6.07;;;;;;;18.32;100.00;100578.56;4997768;28;20243;-80
2023/06/11 03:54:02;;;;;;;2.55;1.40;;;;;;;18.14;100.00;100569.97;4998403;28;20239;-80
2023/06/11 03:56:29;;;;;;;3.38;1.70;;;;;;;18.14;100.00;100578.00;4995523;28;20234;-80
2023/06/11 03:58:56;;;;;;;2.90;1.73;;;;;;;18.09;100.00;100592.38;5001980;28;20267;-80
2023/06/11 04:01:23;;;;;;;2.58;1.48;;;;;;;18.16;100.00;100599.38;5007690;28;20235;-80
2023/06/11 04:03:50;;;;;;;3.25;1.67;;;;;;;18.23;100.00;100599.25;4999774;28;20284;-80
2023/06/11 04:06:17;;;;;;;3.60;1.75;;;;;;;18.26;100.00;100627.78;5006622;28;20236;-80
2023/06/11 04:08:44;;;;;;;21.40;5.18;;;;;;;18.25;100.00;100638.50;4991762;28;20228;-80
2023/06/11 04:11:11;;;;;;;4.65;3.03;;;;;;;18.27;100.00;100642.03;5005822;28;20755;-81
2023/06/11 04:13:38;;;;;;;24.40;6.00;;;;;;;18.33;100.00;100629.41;4993901;28;20307;-80
2023/06/11 04:16:05;;;;;;;3.17;1.63;;;;;;;18.45;100.00;100609.53;5005064;28;20240;-81
2023/06/11 04:18:33;;;;;;;20.35;5.30;;;;;;;18.53;100.00;100602.22;4996686;28;20226;-80
2023/06/11 04:20:59;;;;;;;2.75;1.60;;;;;;;18.53;100.00;100589.72;4994215;28;20229;-80
2023/06/11 04:23:26;;;;;;;2.72;1.42;;;;;;;18.57;100.00;100595.91;5002200;28;20620;-80
2023/06/11 04:25:55;;;;;;;3.05;1.55;;;;;;;18.50;100.00;100596.94;4997734;28;20291;-80
2023/06/11 04:31:52;;;;;;;2.38;1.88;;;;;;;18.72;100.00;100581.31;4962531;28;20255;-81
2023/06/11 04:34:20;;;;;;;3.10;1.85;;;;;;;18.78;100.00;100589.22;4989271;23;20705;-81
2023/06/11 04:36:47;;;;;;;9.57;3.08;;;;;;;18.77;100.00;100591.03;4975463;28;20252;-82
2023/06/11 04:39:14;;;;;;;2.63;1.60;;;;;;;18.70;100.00;100589.41;4973325;28;20239;-82
2023/06/11 04:41:41;;;;;;;20.08;5.82;;;;;;;18.77;100.00;100585.66;4969912;28;20232;-81
2023/06/11 04:44:08;;;;;;;2.80;1.55;;;;;;;18.81;100.00;100614.16;4994967;28;20256;-83
2023/06/11 04:46:35;;;;;;;22.90;6.18;;;;;;;18.83;100.00;100606.09;4988027;28;20232;-83
2023/06/11 04:49:04;;;;;;;1.83;1.38;;;;;;;18.83;100.00;100624.84;4977269;28;20237;-82
2023/06/11 04:51:32;;;;;;;5.68;2.47;;;;;;;18.93;100.00;100626.41;4973264;28;20236;-82
2023/06/11 04:54:01;;;;;;;2.00;1.35;;;;;;;19.07;100.00;100623.41;4981188;28;20768;-78
2023/06/11 04:56:28;;;;;;;2.28;1.40;;;;;;;19.12;100.00;100613.47;4978035;28;20260;-78
2023/06/11 04:58:55;;;;;;;3.33;1.90;;;;;;;19.20;100.00;100608.81;4980697;28;20236;-78
2023/06/11 05:01:22;;;;;;;2.70;1.40;;;;;;;19.25;100.00;100598.84;4976474;28;20225;-78
2023/06/11 05:03:49;;;;;;;4.18;2.13;;;;;;;19.30;100.00;100601.41;4971970;28;20244;-76
2023/06/11 05:06:21;;;;;;;2.05;1.52;;;;;;;19.49;100.00;100592.00;4976540;28;20266;-76
2023/06/11 05:08:48;;;;;;;8.63;3.15;;;;;;;19.52;100.00;100600.03;4968229;28;20247;-76
2023/06/11 05:11:15;;;;;;;5.68;3.08;;;;;;;19.62;100.00;100595.31;4973894;28;20235;-77
2023/06/11 05:13:41;;;;;;;6.43;3.22;;;;;;;19.69;100.00;100584.41;4969821;28;20306;-76
2023/06/11 05:16:08;;;;;;;2.35;1.48;;;;;;;19.77;100.00;100577.03;4981613;28;20236;-77
2023/06/11 05:18:35;;;;;;;5.63;2.50;;;;;;;19.88;100.00;100581.22;4976637;28;20279;-77
2023/06/11 05:21:02;;;;;;;4.60;3.00;;;;;;;19.96;100.00;100580.09;4977735;28;20254;-77
2023/06/11 05:23:29;;;;;;;4.28;2.03;;;;;;;20.05;100.00;100579.84;4972250;28;20235;-77
2023/06/11 05:26:01;;;;;;;4.90;2.97;;;;;;;20.14;100.00;100576.91;4984792;28;20604;-86
2023/06/11 05:28:28;;;;;;;2.33;1.55;;;;;;;20.15;100.00;100575.09;4975552;28;20232;-85
2023/06/11 05:30:55;;;;;;;2.13;1.48;;;;;;;20.19;100.00;100586.63;4957144;28;20234;-82
2023/06/11 05:33:22;;;;;;;3.67;1.95;;;;;;;20.23;100.00;100581.13;4980781;28;20236;-82
2023/06/11 05:35:51;;;;;;;3.33;1.73;;;;;;;20.34;100.00;100572.78;4979777;28;20243;-81
2023/06/11 05:38:19;;;;;;;3.50;1.88;;;;;;;20.49;100.00;100572.34;4987956;28;20244;-81
2023/06/11 05:40:45;;;;;;;24.17;6.65;;;;;;;20.57;100.00;100569.44;4983349;28;20259;-82
2023/06/11 05:43:12;;;;;;;2.95;1.67;;;;;;;20.66;100.00;100570.03;4980200;28;20248;-81
2023/06/11 05:45:47;;;;;;;20.50;6.15;;;;;;;20.69;100.00;100543.09;4978623;28;20268;-82
2023/06/11 05:48:14;;;;;;;2.22;1.40;;;;;;;20.81;100.00;100546.34;4984370;28;20232;-81
2023/06/11 05:50:42;;;;;;;23.58;7.57;;;;;;;20.92;100.00;100546.88;4976613;28;20224;-82
2023/06/11 05:53:09;;;;;;;3.33;1.75;;;;;;;20.92;100.00;100522.69;4988436;28;20224;-82
2023/06/11 05:55:37;;;;;;;18.38;6.00;;;;;;;21.06;100.00;100517.75;4973497;28;20239;-81
2023/06/11 05:58:05;;;;;;;2.72;1.60;;;;;;;21.14;100.00;100515.69;4982360;28;20295;-82
2023/06/11 06:00:32;;;;;;;12.77;4.38;;;;;;;21.20;100.00;100525.38;4975568;28;20228;-82
2023/06/11 06:03:01;;;;;;;2.28;1.73;;;;;;;21.55;100.00;100518.81;4982751;28;20235;-83
2023/06/11 06:05:32;;;;;;;3.00;1.63;;;;;;;21.34;100.00;100489.03;4971383;28;20242;-82
2023/06/11 06:08:02;;;;;;;2.72;1.88;;;;;;;21.30;100.00;100486.50;4985483;28;20228;-81
2023/06/11 06:10:29;;;;;;;2.65;1.50;;;;;;;21.49;100.00;100481.38;4978136;28;20315;-83
2023/06/11 06:12:56;;;;;;;3.55;2.15;;;;;;;21.59;100.00;100469.34;4977543;28;20323;-83
2023/06/11 06:15:23;;;;;;;2.10;1.25;;;;;;;21.72;100.00;100463.47;4976967;28;20233;-82
2023/06/11 06:17:49;;;;;;;3.88;2.38;;;;;;;21.79;100.00;100444.38;4972552;28;20248;-82
2023/06/11 06:20:16;;;;;;;3.25;1.95;;;;;;;22.35;100.00;100453.06;4977228;28;20217;-82
2023/06/11 06:22:43;;;;;;;22.40;6.25;;;;;;;22.51;100.00;100432.66;4976722;28;20224;-82
2023/06/11 06:25:10;;;;;;;3.03;1.88;;;;;;;22.48;100.00;100416.63;4973777;28;20228;-83
2023/06/11 06:27:37;;;;;;;18.13;5.80;;;;;;;22.39;100.00;100400.81;4972472;28;20220;-83
2023/06/11 06:30:05;;;;;;;4.60;2.55;;;;;;;22.58;100.00;100427.91;4971404;28;20233;-82
2023/06/11 06:32:32;;;;;;;13.95;4.45;;;;;;;22.80;100.00;100407.25;4971026;28;20228;-83
2023/06/11 06:34:59;;;;;;;2.72;1.58;;;;;;;22.78;100.00;100387.53;4980904;28;20291;-82
2023/06/11 06:37:27;;;;;;;3.80;2.10;;;;;;;22.76;100.00;100358.88;4989646;28;20244;-83
2023/06/11 06:39:54;;;;;;;5.30;2.10;;;;;;;22.68;100.00;100321.47;4979172;28;20305;-82
2023/06/11 06:42:21;;;;;;;2.65;1.83;;;;;;;22.80;100.00;100317.41;4982671;28;20242;-83
2023/06/11 06:44:48;;;;;;;11.68;3.63;;;;;;;22.93;100.00;100338.38;4974661;28;20388;-84
2023/06/11 06:47:15;;;;;;;2.67;1.63;;;;;;;23.26;100.00;100356.72;4979108;28;20228;-83
2023/06/11 06:49:42;;;;;;;18.92;7.00;;;;;;;23.15;100.00;100316.72;4971828;28;20317;-83
2023/06/11 06:52:11;;;;;;;2.97;1.98;;;;;;;23.68;100.00;100340.47;4971571;28;20236;-84
2023/06/11 06:54:39;;;;;;;18.35;6.70;;;;;;;23.51;100.00;100281.81;4974436;28;20236;-82
2023/06/11 06:57:09;;;;;;;3.63;2.60;;;;;;;23.39;100.00;100252.66;4981383;28;20235;-83
2023/06/11 06:59:36;;;;;;;17.48;5.88;;;;;;;23.59;100.00;100239.19;4973691;28;20224;-83
2023/06/11 07:02:03;;;;;;;3.40;2.15;;;;;;;23.76;100.00;100226.69;4981382;28;20646;-82
2023/06/11 07:04:34;;;;;;;15.32;4.95;;;;;;;23.83;100.00;100201.13;4978400;28;20224;-84
2023/06/11 07:07:01;;;;;;;3.25;1.75;;;;;;;23.92;100.00;100188.06;4985404;28;20230;-83
2023/06/11 07:09:28;;;;;;;2.83;1.85;;;;;;;24.28;100.00;100206.09;4977199;28;20235;-83
2023/06/11 07:11:55;;;;;;;3.22;1.83;;;;;;;24.15;100.00;100137.38;4979991;28;20239;-81
2023/06/11 07:14:21;;;;;;;2.65;1.60;;;;;;;24.02;100.00;100104.72;4980434;28;20227;-81
2023/06/11 07:16:48;;;;;;;2.75;1.50;;;;;;;24.06;100.00;100092.81;4975338;28;20247;-82
2023/06/11 07:19:15;;;;;;;3.47;2.15;;;;;;;24.06;100.00;100079.31;4980548;28;20326;-82
2023/06/11 07:21:42;;;;;;;18.17;5.60;;;;;;;24.36;100.00;100055.22;4975665;28;20251;-82
2023/06/11 07:24:09;;;;;;;2.75;1.50;;;;;;;24.60;100.00;100071.06;4982166;28;20601;-82
2023/06/11 07:26:36;;;;;;;20.48;6.03;;;;;;;24.65;100.00;100033.84;4974824;28;20224;-79
2023/06/11 07:29:02;;;;;;;3.78;2.20;;;;;;;24.83;100.00;100027.44;4970675;28;20225;-83
2023/06/11 07:31:29;;;;;;;2.63;1.67;;;;;;;25.39;100.00;100053.13;4976111;28;20224;-79
2023/06/11 07:33:56;;;;;;;2.55;1.52;;;;;;;25.18;100.00;99969.50;4975394;28;20283;-77
2023/06/11 07:36:23;;;;;;;3.22;2.00;;;;;;;25.26;100.00;99960.94;4973832;28;20311;-81
2023/06/11 07:38:50;;;;;;;4.93;2.65;;;;;;;25.15;100.00;99910.16;4972306;28;20267;-81
2023/06/11 07:41:17;;;;;;;2.88;1.70;;;;;;;25.30;100.00;99911.06;4978839;28;20239;-82
2023/06/11 07:43:44;;;;;;;22.20;7.00;;;;;;;25.28;100.00;99876.94;4972331;28;20227;-81
2023/06/11 07:46:11;;;;;;;2.45;1.45;;;;;;;25.02;100.00;99827.97;4972581;28;20239;-82
2023/06/11 07:48:41;;;;;;;4.78;2.35;;;;;;;25.02;100.00;99784.69;4925400;28;20235;-81
2023/06/11 07:51:08;;;;;;;4.40;2.45;;;;;;;24.91;100.00;99773.63;4829872;28;20237;-81
2023/06/11 07:53:37;;;;;;;5.38;2.97;;;;;;;25.25;100.00;99794.09;4853345;28;20237;-83
2023/06/11 07:56:03;;;;;;;5.78;1.85;;;;;;;25.29;100.00;99749.66;4976613;28;20283;-80
2023/06/11 07:58:30;;;;;;;5.10;2.33;;;;;;;25.19;100.00;99699.78;4974544;28;20240;-81
2023/06/11 08:00:57;;;;;;;2.90;1.95;;;;;;;25.46;100.00;99735.06;4967695;28;20235;-81
2023/06/11 08:03:24;;;;;;;3.28;1.83;;;;;;;25.40;100.00;99709.25;4973845;28;20238;-81
2023/06/11 08:05:51;;;;;;;2.33;1.42;;;;;;;25.19;100.00;99645.66;4971080;28;20687;-81
2023/06/11 08:08:17;;;;;;;3.17;1.83;;;;;;;25.72;100.00;99704.50;4977673;28;20306;-81
2023/06/11 08:10:45;;;;;;;18.60;5.88;;;;;;;25.56;100.00;99638.75;4609347;28;10699212;-81
2023/06/11 08:13:12;;;;;;;2.47;1.48;;;;;;;25.81;100.00;99657.84;4974595;28;20255;-81
2023/06/11 08:15:39;;;;;;;5.18;2.92;;;;;;;25.99;100.00;99698.25;4968499;28;20239;-83
2023/06/11 08:18:06;;;;;;;1.88;1.08;;;;;;;25.89;100.00;99611.31;4979800;28;20232;-83
2023/06/11 08:20:33;;;;;;;1.88;1.15;;;;;;;25.73;100.00;99570.84;4977259;28;20427;-82
2023/06/11 08:23:00;;;;;;;2.53;1.67;;;;;;;25.81;100.00;99605.53;4973880;28;20699;-81
2023/06/11 08:25:27;;;;;;;2.22;1.48;;;;;;;25.88;100.00;99559.94;4976675;28;20351;-82
2023/06/11 08:27:54;;;;;;;2.75;1.52;;;;;;;26.15;98.73;99558.94;4984346;28;20317;-81
2023/06/11 08:30:21;;;;;;;25.45;7.60;;;;;;;26.02;99.21;99540.94;4975258;28;20227;-82
2023/06/11 08:32:48;;;;;;;2.70;1.45;;;;;;;26.12;99.30;99531.19;4979362;28;20323;-82
2023/06/11 08:35:14;;;;;;;23.85;6.82;;;;;;;26.67;98.28;99577.03;4971819;28;20263;-81
2023/06/11 08:37:41;;;;;;;1.80;1.02;;;;;;;26.64;100.00;99584.50;4985465;28;20258;-82
2023/06/11 08:40:09;;;;;;;3.90;1.67;;;;;;;26.65;96.30;99518.44;4980554;28;20230;-83
2023/06/11 08:42:36;;;;;;;1.70;1.17;;;;;;;26.70;95.23;99500.88;5003146;28;20256;-82
2023/06/11 08:45:03;;;;;;;1.25;0.95;;;;;;;26.93;96.82;99530.88;4978480;28;20259;-82
2023/06/11 08:47:33;;;;;;;2.40;1.48;;;;;;;26.58;91.85;99412.25;4970056;28;20231;-82
2023/06/11 08:50:02;;;;;;;1.48;0.93;;;;;;;26.01;95.67;99368.53;4970868;28;20254;-82
2023/06/11 08:52:31;;;;;;;1.92;1.13;;;;;;;26.68;94.21;99431.44;4950053;28;20239;-82
2023/06/11 08:54:59;;;;;;;1.67;1.00;;;;;;;26.49;90.63;99353.28;4957914;28;20221;-81
2023/06/11 08:57:26;;;;;;;19.25;5.28;;;;;;;26.77;88.18;99362.94;4940230;28;20298;-83
2023/06/11 08:59:53;;;;;;;2.03;1.02;;;;;;;26.79;87.98;99328.44;4975759;28;20226;-82
2023/06/11 09:02:21;;;;;;;23.17;7.32;;;;;;;26.61;85.86;99270.16;4969892;28;20310;-84
2023/06/11 09:04:48;;;;;;;1.83;1.30;;;;;;;27.16;86.72;99328.38;4978393;28;20228;-83
2023/06/11 09:07:23;;;;;;;26.35;7.50;;;;;;;27.29;83.11;99283.88;4972092;28;20234;-82
2023/06/11 09:10:23;;;;;;;3.42;1.38;;;;;;;27.39;84.40;99300.34;4975736;28;20224;-82
2023/06/11 09:12:50;;;;;;;1.92;1.23;;;;;;;28.18;84.70;99381.00;4940979;28;20231;-82
2023/06/11 09:15:17;;;;;;;13.52;5.10;;;;;;;27.93;84.81;99308.72;4973897;28;20240;-82
2023/06/11 09:17:46;;;;;;;1.75;1.15;;;;;;;27.46;78.13;99167.69;4980122;28;20231;-81
2023/06/11 09:20:15;;;;;;;19.58;6.70;;;;;;;28.28;78.94;99275.13;4972649;28;20235;-82
2023/06/11 09:22:43;;;;;;;2.08;1.33;;;;;;;27.88;75.06;99149.78;4974389;28;20761;-82
2023/06/11 09:25:16;;;;;;;12.80;4.40;;;;;;;27.20;72.05;99002.34;4977347;28;20231;-81
2023/06/11 09:27:45;;;;;;;2.17;1.20;;;;;;;27.75;72.10;99075.72;4975297;28;20266;-81
2023/06/11 09:30:17;;;;;;;19.95;5.78;;;;;;;27.94;69.28;99057.75;4964754;28;20278;-82
2023/06/11 09:32:46;;;;;;;2.90;1.70;;;;;;;27.73;64.36;98927.31;4975789;28;20318;-81
2023/06/11 09:35:14;;;;;;;21.73;6.97;;;;;;;27.98;64.07;98958.69;4969823;28;20238;-81
2023/06/11 09:37:50;;;;;;;1.67;1.00;;;;;;;27.79;59.52;98832.72;4972646;28;20251;-81
2023/06/11 09:40:19;;;;;;;15.18;4.78;;;;;;;27.64;57.94;98757.03;4958852;28;20228;-80
2023/06/11 09:42:47;;;;;;;2.50;1.38;;;;;;;27.69;59.51;98778.34;4973388;28;20322;-81
2023/06/11 09:45:16;;;;;;;26.48;9.45;;;;;;;28.14;60.61;98857.66;4962354;28;20235;-82
2023/06/11 09:47:47;;;;;;;3.03;1.67;;;;;;;28.19;57.51;98790.16;4968581;28;20628;-82
2023/06/11 09:50:16;;;;;;;29.13;10.50;;;;;;;28.12;57.83;98763.66;4983389;28;20223;-81
2023/06/11 09:52:44;;;;;;;2.13;1.20;;;;;;;27.98;55.31;98683.41;4972685;28;20227;-81
2023/06/11 09:55:11;;;;;;;5.63;3.00;;;;;;;28.10;55.93;98695.00;4918783;28;20325;-81
2023/06/11 09:57:38;;;;;;;2.03;1.30;;;;;;;28.19;55.23;98703.19;4977199;28;20226;-83
2023/06/11 10:00:10;;;;;;;3.35;1.75;;;;;;;28.13;54.07;98638.53;4973312;28;20227;-82
2023/06/11 10:02:42;;;;;;;2.42;1.35;;;;;;;28.59;51.54;98648.75;4970226;28;20673;-82
2023/06/11 10:05:10;;;;;;;2.25;1.23;;;;;;;28.82;51.88;98653.91;4962769;28;20234;-81
2023/06/11 10:07:42;;;;;;;3.78;2.05;;;;;;;28.86;56.48;98735.13;4972994;28;20234;-82
2023/06/11 10:10:11;;;;;;;7.82;3.10;;;;;;;28.99;55.14;98727.53;4974213;28;20224;-82
2023/06/11 10:12:38;;;;;;;2.63;1.48;;;;;;;29.10;54.76;98712.06;4971347;28;20815;-82
2023/06/11 10:15:09;;;;;;;2.33;1.20;;;;;;;28.79;53.13;98605.25;4964764;28;20234;-82
2023/06/11 10:17:36;;;;;;;3.78;2.15;;;;;;;29.40;54.81;98716.44;4970959;28;20611;-80
2023/06/11 10:20:04;;;;;;;3.03;1.75;;;;;;;28.52;53.10;98536.09;4970370;28;20220;-80
2023/06/11 10:22:35;;;;;;;2.75;1.65;;;;;;;29.43;54.05;98697.13;4960735;28;20235;-81
2023/06/11 10:25:03;;;;;;;1.95;1.17;;;;;;;29.27;50.04;98573.34;4974005;28;20239;-81
2023/06/11 10:27:37;;;;;;;2.95;1.58;;;;;;;29.29;50.28;98573.19;4967105;28;20239;-80
2023/06/11 10:30:08;;;;;;;1.80;0.98;;;;;;;29.76;48.90;98603.09;4976263;28;20239;-82
2023/06/11 10:32:48;;;;;;;2.63;1.67;;;;;;;29.62;47.60;98531.75;4971714;28;20307;-82
2023/06/11 10:35:22;;;;;;;11.50;4.30;;;;;;;29.25;45.66;98400.25;4969603;28;20231;-82
2023/06/11 10:37:49;;;;;;;2.10;1.10;;;;;;;29.69;49.02;98545.63;4977438;28;20232;-81
2023/06/11 10:40:16;;;;;;;24.02;7.43;;;;;;;29.58;47.75;98484.06;4948171;28;20232;-81
2023/06/11 10:42:51;;;;;;;2.78;1.55;;;;;;;29.47;46.89;98429.81;4968043;28;20252;-81
2023/06/11 10:45:18;;;;;;;22.05;6.80;;;;;;;29.90;51.83;98605.28;4958756;28;20233;-79
2023/06/11 10:47:48;;;;;;;2.75;1.50;;;;;;;30.14;49.89;98607.50;4976996;28;20703;-80
2023/06/11 10:50:23;;;;;;;24.65;8.10;;;;;;;29.98;48.57;98547.31;4969644;28;20318;-78
2023/06/11 10:52:50;;;;;;;1.40;0.98;;;;;;;29.72;49.69;98534.41;4959558;28;20233;-81
2023/06/11 10:55:17;;;;;;;27.88;9.40;;;;;;;29.55;49.29;98486.22;4973820;28;20235;-81
2023/06/11 10:57:44;;;;;;;0.95;0.77;;;;;;;29.91;50.61;98561.56;4974528;28;20238;-80
2023/06/11 11:00:12;;;;;;;17.98;5.78;;;;;;;30.21;49.19;98565.81;4975752;28;20243;-81
2023/06/11 11:02:39;;;;;;;1.75;0.95;;;;;;;29.87;48.40;98472.06;4975953;28;20232;-80
2023/06/11 11:05:09;;;;;;;3.25;1.70;;;;;;;30.06;46.79;98474.69;4979653;28;20306;-81
2023/06/11 11:07:37;;;;;;;1.65;1.00;;;;;;;29.97;49.16;98500.13;4981642;28;20231;-81
2023/06/11 11:10:05;;;;;;;2.20;1.30;;;;;;;30.54;49.25;98580.59;4982508;28;20232;-81
2023/06/11 11:12:38;;;;;;;2.03;1.20;;;;;;;30.02;47.42;98451.50;4976145;28;20305;-81
2023/06/11 11:15:05;;;;;;;7.07;3.75;;;;;;;30.56;48.28;98554.03;4983133;28;20319;-82
2023/06/11 11:17:33;;;;;;;2.58;1.15;;;;;;;30.20;50.07;98541.44;4968483;28;20239;-81
2023/06/11 11:20:00;;;;;;;2.03;1.60;;;;;;;30.34;51.14;98559.97;4984476;28;20290;-82
2023/06/11 11:22:29;;;;;;;1.95;1.10;;;;;;;31.36;53.14;98734.22;4978653;28;20238;-82
2023/06/11 11:25:00;;;;;;;1.92;1.05;;;;;;;30.86;48.54;98560.94;4975978;28;20234;-81
2023/06/11 11:27:27;;;;;;;1.55;1.08;;;;;;;30.28;48.74;98470.63;4969451;28;20240;-81